createdAt,value
2022-09-28T00:03:22.174Z,2.08
2022-09-28T00:07:07.233Z,2.50
2022-09-28T00:11:01.282Z,2.42
2022-09-28T00:14:47.239Z,2.15
2022-09-28T00:18:39.243Z,2.70
2022-09-28T00:22:17.494Z,2.17
2022-09-28T00:26:09.226Z,2.10
2022-09-28T00:29:54.226Z,2.03
2022-09-28T00:33:47.221Z,2.60
2022-09-28T00:37:26.713Z,2.33
2022-09-28T00:41:18.221Z,2.22
2022-09-28T00:45:06.240Z,2.72
2022-09-28T00:49:03.309Z,2.13
2022-09-28T00:53:03.267Z,2.53
2022-09-28T00:57:00.223Z,2.40
2022-09-28T01:00:47.246Z,2.57
2022-09-28T01:04:32.291Z,2.30
2022-09-28T01:08:18.227Z,2.65
2022-09-28T01:12:10.275Z,2.33
2022-09-28T01:15:59.627Z,2.30
2022-09-28T01:20:18.229Z,2.40
2022-09-28T01:24:26.254Z,2.53
2022-09-28T01:28:14.324Z,1.88
2022-09-28T01:32:08.238Z,2.77
2022-09-28T01:36:17.240Z,2.50
2022-09-28T01:40:04.248Z,2.85
2022-09-28T01:43:54.294Z,2.65
2022-09-28T01:47:47.254Z,1.93
2022-09-28T01:51:43.241Z,3.22
2022-09-28T01:55:39.433Z,2.60
2022-09-28T01:59:22.331Z,2.53
2022-09-28T02:03:29.381Z,2.20
2022-09-28T02:07:36.264Z,2.45
2022-09-28T02:11:29.252Z,2.35
2022-09-28T02:15:26.481Z,2.50
2022-09-28T02:19:24.252Z,2.77
2022-09-28T02:23:10.274Z,2.78
2022-09-28T02:27:05.273Z,3.75
2022-09-28T02:30:45.446Z,3.33
2022-09-28T02:34:37.264Z,3.30
2022-09-28T02:38:25.336Z,2.85
2022-09-28T02:43:13.304Z,2.67
2022-09-28T02:47:26.968Z,3.00
2022-09-28T02:52:00.278Z,2.83
2022-09-28T02:56:02.289Z,2.65
2022-09-28T03:00:12.309Z,2.60
2022-09-28T03:04:01.191Z,2.80
2022-09-28T03:08:10.286Z,2.83
2022-09-28T03:12:11.288Z,2.70
2022-09-28T03:15:56.596Z,3.22
2022-09-28T03:19:41.443Z,2.50
2022-09-28T03:23:33.280Z,2.83
2022-09-28T03:27:18.294Z,3.08
2022-09-28T03:31:03.612Z,2.70
2022-09-28T03:34:48.284Z,2.43
2022-09-28T03:38:40.312Z,3.28
2022-09-28T03:42:25.298Z,2.58
2022-09-28T03:46:10.559Z,2.87
2022-09-28T03:49:55.323Z,2.80
2022-09-28T03:53:47.308Z,2.85
2022-09-28T03:57:32.301Z,2.75
2022-09-28T04:01:19.494Z,2.70
2022-09-28T04:05:04.315Z,2.35
2022-09-28T04:08:56.305Z,3.03
2022-09-28T04:12:41.339Z,3.60
2022-09-28T04:16:26.478Z,3.17
2022-09-28T04:20:12.322Z,2.65
2022-09-28T04:24:06.325Z,3.30
2022-09-28T04:28:03.189Z,3.30
2022-09-28T04:32:04.368Z,3.10
2022-09-28T04:35:49.660Z,3.35
2022-09-28T04:39:46.269Z,3.50
2022-09-28T04:43:26.923Z,2.90
2022-09-28T04:47:18.485Z,2.80
2022-09-28T04:51:10.490Z,3.28
2022-09-28T04:54:49.432Z,3.70
2022-09-28T04:58:42.418Z,3.50
2022-09-28T05:02:28.557Z,3.53
2022-09-28T05:06:22.316Z,3.10
2022-09-28T05:10:00.742Z,4.00
2022-09-28T05:13:52.542Z,4.32
2022-09-28T05:17:38.361Z,3.92
2022-09-28T05:21:37.327Z,8.95
2022-09-28T05:25:29.346Z,6.23
2022-09-28T05:29:14.429Z,8.98
2022-09-28T05:33:06.342Z,8.90
2022-09-28T05:36:45.746Z,6.57
2022-09-28T05:40:37.384Z,7.20
2022-09-28T05:44:22.360Z,5.72
2022-09-28T05:48:21.328Z,5.18
2022-09-28T05:52:13.356Z,5.00
2022-09-28T05:56:08.362Z,4.57
2022-09-28T05:59:53.355Z,5.03
2022-09-28T06:03:38.425Z,4.18
2022-09-28T06:07:27.348Z,3.53
2022-09-28T06:11:19.357Z,3.15
2022-09-28T06:15:05.370Z,3.47
2022-09-28T06:18:50.421Z,3.20
2022-09-28T06:22:35.344Z,3.80
2022-09-28T06:26:27.368Z,5.00
2022-09-28T06:30:06.155Z,4.03
2022-09-28T06:33:57.453Z,3.53
2022-09-28T06:37:42.376Z,3.87
2022-09-28T06:41:34.383Z,3.28
2022-09-28T06:45:12.679Z,3.30
2022-09-28T06:49:04.391Z,3.03
2022-09-28T06:52:49.385Z,3.17
2022-09-28T06:56:34.538Z,3.28
2022-09-28T07:00:20.377Z,2.17
2022-09-28T07:04:12.374Z,2.07
2022-09-28T07:07:50.644Z,3.17
2022-09-28T07:11:42.378Z,2.55
2022-09-28T07:15:27.406Z,2.10
2022-09-28T07:19:12.441Z,2.03
2022-09-28T07:23:18.520Z,2.20
2022-09-28T07:27:12.377Z,2.33
2022-09-28T07:30:57.462Z,1.45
2022-09-28T07:34:45.274Z,2.70
2022-09-28T07:38:30.368Z,2.53
2022-09-28T07:42:22.456Z,2.72
2022-09-28T07:46:08.707Z,2.35
2022-09-28T07:49:54.237Z,2.13
2022-09-28T07:53:39.404Z,2.27
2022-09-28T07:57:32.416Z,1.80
2022-09-28T08:01:12.960Z,2.15
2022-09-28T08:05:04.421Z,2.37
2022-09-28T08:08:52.414Z,2.00
2022-09-28T08:12:40.782Z,1.25
2022-09-28T08:16:25.515Z,1.98
2022-09-28T08:20:36.413Z,2.30
2022-09-28T08:24:16.488Z,1.93
2022-09-28T08:28:08.405Z,1.52
2022-09-28T08:31:58.272Z,1.98
2022-09-28T08:35:53.405Z,1.80
2022-09-28T08:39:32.625Z,1.17
2022-09-28T08:43:50.434Z,1.85
2022-09-28T08:48:07.415Z,1.55
2022-09-28T08:52:00.571Z,2.17
2022-09-28T08:55:48.483Z,1.83
2022-09-28T08:59:52.424Z,2.47
2022-09-28T09:03:33.900Z,2.00
2022-09-28T09:07:31.438Z,2.05
2022-09-28T09:12:07.457Z,1.60
2022-09-28T09:16:21.510Z,1.80
2022-09-28T09:20:20.412Z,2.10
2022-09-28T09:24:48.463Z,2.13
2022-09-28T09:29:08.424Z,1.70
2022-09-28T09:33:35.447Z,1.88
2022-09-28T09:37:56.524Z,1.45
2022-09-28T09:41:59.465Z,2.20
2022-09-28T09:46:33.489Z,1.60
2022-09-28T09:50:38.496Z,1.70
2022-09-28T09:55:02.448Z,1.80
2022-09-28T09:58:59.556Z,1.63
2022-09-28T10:02:53.508Z,1.70
2022-09-28T10:06:41.488Z,2.17
2022-09-28T10:10:31.659Z,2.00
2022-09-28T10:14:23.484Z,2.10
2022-09-28T10:18:24.547Z,1.77
2022-09-28T10:22:13.490Z,1.73
2022-09-28T10:26:03.565Z,1.90
2022-09-28T10:29:59.513Z,1.33
2022-09-28T10:33:52.633Z,1.35
2022-09-28T10:37:31.477Z,1.55
2022-09-28T10:41:26.318Z,1.30
2022-09-28T10:45:27.492Z,1.35
2022-09-28T10:49:32.547Z,1.80
2022-09-28T10:53:21.086Z,1.42
2022-09-28T10:57:13.581Z,1.90
2022-09-28T11:00:59.551Z,1.80
2022-09-28T11:04:57.508Z,1.08
2022-09-28T11:08:42.685Z,1.40
2022-09-28T11:12:37.479Z,1.20
2022-09-28T11:16:38.585Z,0.70
2022-09-28T11:20:47.503Z,0.77
2022-09-28T11:24:27.195Z,1.25
2022-09-28T11:28:19.525Z,0.90
2022-09-28T11:32:15.657Z,0.80
2022-09-28T11:36:12.286Z,0.90
2022-09-28T11:40:30.558Z,1.65
2022-09-28T11:44:41.510Z,1.23
2022-09-28T11:48:31.899Z,1.67
2022-09-28T11:52:30.513Z,1.50
2022-09-28T11:56:46.520Z,1.23
2022-09-28T12:00:39.520Z,0.90
2022-09-28T12:04:31.558Z,0.90
2022-09-28T12:08:27.305Z,0.90
2022-09-28T12:12:24.511Z,1.33
2022-09-28T12:20:36.529Z,1.40
2022-09-28T12:24:48.695Z,1.10
2022-09-28T12:28:55.509Z,1.10
2022-09-28T12:32:56.589Z,1.65
2022-09-28T12:36:58.532Z,1.20
2022-09-28T12:41:01.747Z,0.87
2022-09-28T12:44:59.825Z,0.90
2022-09-28T12:49:51.523Z,0.93
2022-09-28T12:53:39.537Z,0.90
2022-09-28T12:57:44.543Z,1.00
2022-09-28T13:01:45.632Z,0.75
2022-09-28T13:05:50.546Z,1.05
2022-09-28T13:09:33.593Z,0.90
2022-09-28T13:13:47.550Z,0.90
2022-09-28T13:18:01.572Z,1.05
2022-09-28T13:21:58.551Z,1.42
2022-09-28T13:25:40.960Z,1.00
2022-09-28T13:29:33.628Z,1.87
2022-09-28T13:33:21.556Z,1.60
2022-09-28T13:37:28.569Z,1.60
2022-09-28T13:41:12.668Z,2.07
2022-09-28T13:45:07.558Z,2.00
2022-09-28T13:49:12.570Z,2.03
2022-09-28T13:53:32.579Z,1.63
2022-09-28T13:57:25.330Z,1.75
2022-09-28T14:01:34.650Z,1.40
2022-09-28T14:05:40.592Z,2.10
2022-09-28T14:09:33.717Z,2.35
2022-09-28T14:13:18.588Z,2.42
2022-09-28T14:17:39.581Z,2.67
2022-09-28T14:22:02.590Z,1.20
2022-09-28T14:26:11.623Z,0.93
2022-09-28T14:30:05.092Z,0.57
2022-09-28T14:34:08.582Z,0.90
2022-09-28T14:38:15.593Z,0.52
2022-09-28T14:42:00.639Z,0.40
2022-09-28T14:45:45.638Z,0.80
2022-09-28T14:49:49.618Z,0.43
2022-09-28T14:53:28.813Z,0.82
2022-09-28T14:57:30.593Z,0.68
2022-09-28T15:01:27.580Z,1.33
2022-09-28T15:05:21.648Z,0.80
2022-09-28T15:09:49.653Z,0.90
2022-09-28T15:13:41.587Z,1.00
2022-09-28T15:17:37.020Z,1.10
2022-09-28T15:21:37.617Z,1.05
2022-09-28T15:25:21.676Z,1.30
2022-09-28T15:29:24.641Z,1.10
2022-09-28T15:33:29.598Z,1.02
2022-09-28T15:37:31.637Z,0.90
2022-09-28T15:41:23.625Z,1.40
2022-09-28T15:45:38.604Z,2.27
2022-09-28T15:49:38.801Z,5.20
2022-09-28T15:53:24.644Z,2.72
2022-09-28T15:57:35.656Z,2.37
2022-09-28T16:01:44.679Z,4.63
2022-09-28T16:05:48.617Z,1.85
2022-09-28T16:09:41.069Z,1.25
2022-09-28T16:13:32.609Z,1.20
2022-09-28T16:17:17.639Z,1.63
2022-09-28T16:21:32.614Z,1.33
2022-09-28T16:25:12.102Z,0.68
2022-09-28T16:29:03.637Z,0.70
2022-09-28T16:32:52.676Z,1.00
2022-09-28T16:36:52.705Z,1.33
2022-09-28T16:40:31.789Z,1.88
2022-09-28T16:44:30.864Z,1.10
2022-09-28T16:48:17.810Z,0.83
2022-09-28T16:52:16.660Z,1.20
2022-09-28T16:56:11.938Z,1.00
2022-09-28T17:00:04.712Z,1.10
2022-09-28T17:03:53.779Z,1.03
2022-09-28T17:07:39.759Z,0.93
2022-09-28T17:11:26.653Z,3.15
2022-09-28T17:15:22.696Z,3.30
2022-09-28T17:19:07.691Z,2.67
2022-09-28T17:22:53.594Z,2.17
2022-09-28T17:26:39.686Z,1.85
2022-09-28T17:30:31.635Z,1.60
2022-09-28T17:34:11.649Z,1.67
2022-09-28T17:38:03.723Z,1.45
2022-09-28T17:41:48.715Z,1.90
2022-09-28T17:45:45.787Z,1.87
2022-09-28T17:49:23.992Z,2.43
2022-09-28T17:53:16.658Z,2.13
2022-09-28T17:57:01.672Z,2.03
2022-09-28T18:00:46.763Z,2.67
2022-09-28T18:04:51.356Z,2.20
2022-09-28T18:08:44.708Z,2.78
2022-09-28T18:12:31.693Z,2.88
2022-09-28T18:16:23.691Z,2.70
2022-09-28T18:20:02.019Z,2.30
2022-09-28T18:23:53.667Z,2.88
2022-09-28T18:27:40.673Z,7.97
2022-09-28T18:31:27.654Z,6.33
2022-09-28T18:35:15.882Z,5.77
2022-09-28T18:39:08.699Z,5.05
2022-09-28T18:42:55.716Z,3.30
2022-09-28T18:46:41.236Z,4.80
2022-09-28T18:50:25.812Z,6.77
2022-09-28T18:54:17.784Z,4.80
2022-09-28T18:58:02.830Z,16.70
2022-09-28T19:01:48.004Z,8.60
2022-09-28T19:05:40.714Z,7.63
2022-09-28T19:09:25.704Z,5.90
2022-09-28T19:13:17.729Z,5.03
2022-09-28T19:16:55.933Z,3.47
2022-09-28T19:20:47.691Z,4.07
2022-09-28T19:24:32.709Z,3.90
2022-09-28T19:28:24.702Z,3.55
2022-09-28T19:32:02.842Z,2.80
2022-09-28T19:36:05.726Z,4.95
2022-09-28T19:39:51.704Z,17.63
2022-09-28T19:43:43.724Z,8.60
2022-09-28T19:47:22.197Z,6.80
2022-09-28T19:51:14.751Z,7.47
2022-09-28T19:55:02.715Z,5.28
2022-09-28T19:58:54.718Z,2.90
2022-09-28T20:02:32.858Z,2.90
2022-09-28T20:06:24.739Z,4.10
2022-09-28T20:10:09.731Z,6.07
2022-09-28T20:14:01.727Z,6.47
2022-09-28T20:17:42.779Z,6.87
2022-09-28T20:21:34.727Z,6.35
2022-09-28T20:25:20.724Z,6.70
2022-09-28T20:29:20.838Z,7.37
2022-09-28T20:33:28.703Z,5.73
2022-09-28T20:37:23.763Z,6.70
2022-09-28T20:41:12.740Z,7.18
2022-09-28T20:45:04.722Z,6.90
2022-09-28T20:48:43.843Z,7.00
2022-09-28T20:52:35.703Z,6.10
2022-09-28T20:56:25.747Z,5.70
2022-09-28T21:00:17.767Z,4.93
2022-09-28T21:04:02.019Z,5.40
2022-09-28T21:07:53.762Z,5.63
2022-09-28T21:11:41.831Z,4.82
2022-09-28T21:15:33.799Z,5.27
2022-09-28T21:19:11.805Z,4.70
2022-09-28T21:23:03.753Z,5.45
2022-09-28T21:26:49.773Z,4.88
2022-09-28T21:30:41.784Z,5.23
2022-09-28T21:34:25.253Z,4.87
2022-09-28T21:38:16.823Z,4.93
2022-09-28T21:42:01.766Z,6.05
2022-09-28T21:46:06.933Z,6.17
2022-09-28T21:50:05.771Z,7.03
2022-09-28T21:53:57.769Z,6.95
2022-09-28T21:57:42.763Z,6.47
2022-09-28T22:01:35.816Z,5.40
2022-09-28T22:05:20.869Z,4.57
2022-09-28T22:09:12.779Z,5.55
2022-09-28T22:12:57.829Z,4.78
2022-09-28T22:16:49.774Z,4.23
2022-09-28T22:20:27.841Z,4.90
2022-09-28T22:24:19.887Z,5.18
2022-09-28T22:28:05.812Z,4.32
2022-09-28T22:31:57.785Z,4.90
2022-09-28T22:35:35.843Z,4.43
2022-09-28T22:39:27.794Z,4.78
2022-09-28T22:43:12.767Z,4.38
2022-09-28T22:47:11.808Z,4.50
2022-09-28T22:51:13.998Z,4.33
2022-09-28T22:55:20.785Z,4.47
2022-09-28T22:59:12.824Z,3.50
2022-09-28T23:02:57.820Z,4.43
2022-09-28T23:06:56.769Z,3.50
2022-09-28T23:10:48.805Z,4.47
2022-09-28T23:14:33.846Z,4.60
2022-09-28T23:18:25.816Z,4.93
2022-09-28T23:22:03.848Z,3.87
2022-09-28T23:25:55.814Z,4.45
2022-09-28T23:29:40.794Z,4.78
2022-09-28T23:33:32.814Z,4.60
2022-09-28T23:37:10.885Z,4.27
2022-09-28T23:41:02.864Z,4.28
2022-09-28T23:44:47.823Z,4.70
2022-09-28T23:48:39.847Z,4.00
2022-09-28T23:52:17.957Z,4.80
2022-09-28T23:56:09.831Z,4.55
2022-09-28T23:59:54.832Z,4.72
